Aviation Digital Data Service (ADDS)

Output produced by METARs form (0645 UTC 21 August 2017)
found at http://aviationweather.gov/adds/metars/
 
KCLE 210540Z 2106/2212 16004KT P6SM SCT110 
     FM211200 22005KT P6SM SCT200 
     FM212100 23005KT P6SM BKN200 
     FM220200 21007KT P6SM SCT150 
     FM220800 20009KT P6SM BKN110